createdAt,value
2018-09-30T00:49:37.076Z,6.41
2018-09-30T00:52:05.684Z,6.49
2018-09-30T00:54:34.223Z,6.39
2018-09-30T00:57:02.764Z,6.34
2018-09-30T00:59:31.392Z,6.38
2018-09-30T01:01:59.920Z,6.21
2018-09-30T01:04:28.644Z,6.26
2018-09-30T01:06:57.360Z,6.24
2018-09-30T01:09:25.937Z,6.20
2018-09-30T01:11:54.732Z,6.18
2018-09-30T01:14:23.349Z,6.21
2018-09-30T01:16:51.939Z,6.31
2018-09-30T01:19:20.475Z,6.33
2018-09-30T01:21:49.057Z,6.40
2018-09-30T01:24:17.621Z,6.43
2018-09-30T01:26:46.250Z,6.33
2018-09-30T01:29:14.796Z,6.34
2018-09-30T01:31:43.357Z,6.29
2018-09-30T01:34:11.934Z,6.15
2018-09-30T01:36:40.535Z,6.08
2018-09-30T01:39:09.111Z,6.01
2018-09-30T01:41:37.708Z,6.11
2018-09-30T01:44:06.291Z,6.20
2018-09-30T01:46:34.950Z,6.16
2018-09-30T01:49:03.751Z,6.21
2018-09-30T01:51:32.312Z,6.18
2018-09-30T01:54:00.876Z,6.15
2018-09-30T01:56:29.408Z,6.14
2018-09-30T01:58:57.960Z,6.11
2018-09-30T02:01:26.499Z,6.06
2018-09-30T02:03:55.046Z,6.13
2018-09-30T02:06:23.603Z,6.03
2018-09-30T02:08:52.162Z,6.01
2018-09-30T02:11:20.685Z,6.04
2018-09-30T02:14:05.459Z,6.09
2018-09-30T02:16:33.975Z,6.11
2018-09-30T02:19:02.543Z,6.11
2018-09-30T02:21:31.089Z,6.06
2018-09-30T02:23:59.636Z,6.05
2018-09-30T02:26:28.159Z,5.92
2018-09-30T02:28:56.709Z,5.90
2018-09-30T02:31:25.307Z,5.91
2018-09-30T02:33:53.824Z,5.97
2018-09-30T02:36:22.358Z,5.87
2018-09-30T02:38:50.903Z,5.72
2018-09-30T02:41:19.456Z,5.78
2018-09-30T02:43:47.988Z,5.84
2018-09-30T02:46:16.545Z,5.87
2018-09-30T02:48:45.095Z,5.76
2018-09-30T02:51:13.659Z,5.70
2018-09-30T02:53:42.193Z,5.79
2018-09-30T02:56:10.704Z,5.85
2018-09-30T02:58:39.238Z,5.66
2018-09-30T03:01:07.824Z,5.55
2018-09-30T03:03:36.349Z,5.60
2018-09-30T03:06:04.886Z,5.70
2018-09-30T03:08:38.618Z,5.72
2018-09-30T03:11:07.570Z,5.76
2018-09-30T03:13:36.126Z,5.74
2018-09-30T03:16:04.668Z,5.76
2018-09-30T03:18:33.186Z,5.68
2018-09-30T03:21:01.737Z,5.72
2018-09-30T03:23:30.283Z,5.71
2018-09-30T03:25:58.822Z,5.74
2018-09-30T03:28:27.356Z,5.72
2018-09-30T03:30:55.995Z,5.72
2018-09-30T03:33:24.556Z,5.72
2018-09-30T03:35:53.095Z,5.73
2018-09-30T03:38:21.627Z,5.62
2018-09-30T03:40:50.237Z,5.68
2018-09-30T03:43:18.775Z,5.69
2018-09-30T03:45:47.300Z,5.61
2018-09-30T03:48:15.861Z,5.54
2018-09-30T03:50:44.493Z,5.51
2018-09-30T03:53:13.020Z,5.45
2018-09-30T03:55:41.556Z,5.46
2018-09-30T03:58:10.106Z,5.50
2018-09-30T04:00:38.663Z,5.45
2018-09-30T04:03:07.212Z,5.29
2018-09-30T04:05:35.752Z,5.30
2018-09-30T04:10:31.935Z,5.18
2018-09-30T04:13:00.523Z,5.07
2018-09-30T04:15:29.088Z,5.07
2018-09-30T04:17:57.611Z,4.96
2018-09-30T04:20:26.187Z,4.93
2018-09-30T04:22:54.812Z,4.90
2018-09-30T04:25:23.410Z,4.93
2018-09-30T04:27:51.943Z,4.97
2018-09-30T04:30:20.484Z,4.92
2018-09-30T04:32:49.028Z,4.78
2018-09-30T04:35:17.584Z,4.83
2018-09-30T04:37:46.095Z,4.77
2018-09-30T04:40:14.648Z,4.80
2018-09-30T04:42:43.188Z,4.83
2018-09-30T04:45:11.843Z,4.84
2018-09-30T04:47:40.364Z,4.85
2018-09-30T04:50:09.045Z,4.87
2018-09-30T04:52:37.507Z,4.92
2018-09-30T04:55:06.087Z,4.97
2018-09-30T04:57:34.602Z,4.94
2018-09-30T05:00:03.151Z,4.94
2018-09-30T05:02:31.780Z,4.98
2018-09-30T05:05:00.330Z,5.00
2018-09-30T05:13:09.411Z,5.06
2018-09-30T05:15:37.939Z,5.12
2018-09-30T05:18:06.580Z,5.03
2018-09-30T05:20:35.120Z,5.09
2018-09-30T05:23:03.719Z,5.09
2018-09-30T05:25:32.262Z,5.06
2018-09-30T05:28:00.803Z,5.08
2018-09-30T05:30:29.337Z,5.09
2018-09-30T05:32:57.863Z,5.07
2018-09-30T05:35:26.404Z,5.03
2018-09-30T05:37:55.048Z,5.04
2018-09-30T05:40:23.571Z,5.08
2018-09-30T05:42:52.115Z,5.12
2018-09-30T05:45:20.683Z,5.14
2018-09-30T05:47:49.250Z,5.16
2018-09-30T05:50:20.853Z,5.22
2018-09-30T05:52:49.631Z,5.24
2018-09-30T05:55:18.167Z,5.26
2018-09-30T05:57:50.730Z,5.29
2018-09-30T06:00:19.259Z,5.35
2018-09-30T06:02:47.790Z,5.41
2018-09-30T06:05:16.349Z,5.47
2018-09-30T06:07:45.122Z,5.49
2018-09-30T06:10:13.759Z,5.53
2018-09-30T06:12:42.305Z,5.59
2018-09-30T06:15:10.973Z,5.60
2018-09-30T06:17:39.559Z,5.71
2018-09-30T06:20:08.519Z,5.77
2018-09-30T06:22:37.056Z,5.84
2018-09-30T06:25:05.863Z,5.82
2018-09-30T06:27:34.415Z,5.89
2018-09-30T06:30:03.031Z,5.95
2018-09-30T06:32:31.592Z,6.09
2018-09-30T06:35:00.176Z,6.20
2018-09-30T06:37:28.816Z,6.28
2018-09-30T06:39:57.380Z,6.30
2018-09-30T06:42:25.924Z,6.39
2018-09-30T06:44:54.512Z,6.37
2018-09-30T06:47:23.066Z,6.34
2018-09-30T06:49:51.615Z,6.34
2018-09-30T06:52:20.171Z,6.53
2018-09-30T06:54:48.756Z,6.88
2018-09-30T06:57:17.336Z,6.99
2018-09-30T06:59:45.877Z,6.98
2018-09-30T07:02:15.118Z,7.21
2018-09-30T07:04:43.721Z,7.02
2018-09-30T07:07:12.236Z,7.18
2018-09-30T07:09:40.772Z,7.20
2018-09-30T07:12:09.457Z,7.40
2018-09-30T07:14:38.056Z,7.46
2018-09-30T07:17:06.680Z,7.75
2018-09-30T09:39:55.971Z,14.59
2018-09-30T09:42:24.491Z,15.28
2018-09-30T09:44:53.020Z,15.73
2018-09-30T09:47:21.569Z,16.35
2018-09-30T09:49:50.124Z,16.19
2018-09-30T09:52:18.683Z,16.27
2018-09-30T09:54:47.255Z,16.84
2018-09-30T09:57:15.840Z,16.83
2018-09-30T09:59:44.414Z,17.53
2018-09-30T10:02:13.834Z,17.47
2018-09-30T10:04:42.580Z,18.00
2018-09-30T10:07:11.164Z,17.70
2018-09-30T10:09:39.721Z,17.68
2018-09-30T10:12:08.345Z,17.85
2018-09-30T10:14:36.972Z,17.30
2018-09-30T10:17:05.525Z,17.18
2018-09-30T10:19:34.168Z,17.20
2018-09-30T10:22:02.787Z,16.94
2018-09-30T10:24:31.393Z,16.70
2018-09-30T10:26:59.969Z,16.45
2018-09-30T10:29:28.491Z,16.08
2018-09-30T10:31:57.082Z,15.93
2018-09-30T10:34:25.664Z,16.18
2018-09-30T10:36:54.233Z,16.15
2018-09-30T10:39:22.924Z,16.28
2018-09-30T10:41:51.378Z,16.34
2018-09-30T10:44:19.929Z,16.24
2018-09-30T10:46:48.487Z,16.00
2018-09-30T10:49:17.210Z,16.06
2018-09-30T10:51:45.816Z,16.19
2018-09-30T10:54:14.355Z,16.17
2018-09-30T10:56:42.904Z,16.26
2018-09-30T10:59:11.572Z,16.59
2018-09-30T11:01:40.131Z,16.62
2018-09-30T11:04:08.779Z,16.54
2018-09-30T11:06:37.342Z,16.79
2018-09-30T11:09:06.896Z,16.32
2018-09-30T11:11:35.452Z,16.56
2018-09-30T11:14:04.500Z,16.66
2018-09-30T11:16:33.090Z,16.80
2018-09-30T11:19:01.756Z,16.65
2018-09-30T11:21:30.293Z,16.93
2018-09-30T11:23:58.834Z,16.84
2018-09-30T11:26:27.436Z,16.59
2018-09-30T11:28:56.008Z,16.50
2018-09-30T11:31:24.627Z,16.67
2018-09-30T11:33:53.170Z,17.05
2018-09-30T11:36:21.767Z,17.11
2018-09-30T11:38:50.324Z,17.22
2018-09-30T11:41:18.912Z,17.47
2018-09-30T11:43:47.442Z,17.59
2018-09-30T11:46:16.005Z,17.70
2018-09-30T11:48:44.558Z,17.89
2018-09-30T11:51:13.121Z,17.86
2018-09-30T11:53:41.692Z,17.75
2018-09-30T11:56:10.319Z,17.75
2018-09-30T11:58:38.944Z,17.82
2018-09-30T12:01:07.756Z,17.64
2018-09-30T12:03:36.301Z,17.57
2018-09-30T12:06:04.845Z,17.60
2018-09-30T12:08:33.387Z,17.86
2018-09-30T12:11:01.915Z,17.98
2018-09-30T12:13:30.447Z,18.00
2018-09-30T12:15:58.971Z,18.04
2018-09-30T12:18:27.496Z,18.12
2018-09-30T12:20:56.041Z,18.33
2018-09-30T12:23:24.620Z,18.31
2018-09-30T12:25:53.309Z,18.29
2018-09-30T12:28:21.845Z,18.46
2018-09-30T12:30:50.455Z,18.16
2018-09-30T12:33:18.996Z,18.10
2018-09-30T12:35:47.565Z,18.09
2018-09-30T12:38:16.109Z,18.09
2018-09-30T12:40:44.687Z,17.80
2018-09-30T12:43:13.225Z,18.11
2018-09-30T12:45:41.784Z,18.45
2018-09-30T12:48:10.585Z,18.11
2018-09-30T12:50:39.094Z,18.26
2018-09-30T12:53:07.787Z,18.22
2018-09-30T12:55:36.332Z,18.08
2018-09-30T12:58:04.885Z,18.05
2018-09-30T13:00:33.464Z,18.19
2018-09-30T13:03:02.064Z,18.41
2018-09-30T13:05:30.633Z,18.41
2018-09-30T13:07:59.208Z,18.42
2018-09-30T13:10:27.768Z,18.25
2018-09-30T13:12:57.708Z,18.21
2018-09-30T13:15:26.463Z,18.12
2018-09-30T13:17:55.027Z,18.17
2018-09-30T13:20:23.560Z,18.33
2018-09-30T13:22:52.095Z,18.30
2018-09-30T13:25:20.636Z,18.22
2018-09-30T13:27:49.192Z,18.41
2018-09-30T13:30:17.825Z,18.31
2018-09-30T13:32:46.427Z,18.51
2018-09-30T13:35:14.967Z,18.45
2018-09-30T13:37:43.561Z,18.41
2018-09-30T13:40:12.195Z,18.48
2018-09-30T13:42:40.747Z,18.50
2018-09-30T13:45:09.749Z,18.51
2018-09-30T13:47:38.335Z,18.74
2018-09-30T13:50:07.120Z,19.00
2018-09-30T13:52:35.863Z,18.95
2018-09-30T13:55:04.596Z,18.99
2018-09-30T13:57:33.147Z,19.02
2018-09-30T14:00:01.685Z,18.82
2018-09-30T14:02:30.340Z,18.93
2018-09-30T14:04:59.761Z,18.90
2018-09-30T14:07:28.299Z,18.81
2018-09-30T14:09:56.832Z,18.98
2018-09-30T14:12:27.079Z,19.05
2018-09-30T14:14:56.224Z,18.97
2018-09-30T14:17:25.176Z,19.21
2018-09-30T14:19:53.708Z,19.22
2018-09-30T14:22:22.257Z,19.23
2018-09-30T14:24:50.812Z,19.21
2018-09-30T14:27:19.553Z,19.32
2018-09-30T14:29:48.140Z,19.07
2018-09-30T14:32:16.721Z,19.06
2018-09-30T14:34:45.288Z,18.87
2018-09-30T14:37:13.880Z,18.91
2018-09-30T14:39:42.482Z,18.94
2018-09-30T14:42:11.232Z,18.99
2018-09-30T14:44:39.783Z,18.90
2018-09-30T14:47:08.392Z,19.02
2018-09-30T14:49:36.965Z,19.08
2018-09-30T14:52:05.530Z,19.16
2018-09-30T14:54:34.168Z,19.06
2018-09-30T14:57:02.793Z,18.91
2018-09-30T14:59:31.355Z,19.05
2018-09-30T15:01:59.924Z,19.12
2018-09-30T15:04:28.481Z,18.91
2018-09-30T15:06:57.024Z,18.84
2018-09-30T15:09:25.572Z,18.89
2018-09-30T15:11:54.162Z,18.86
2018-09-30T15:14:22.772Z,18.91
2018-09-30T15:16:51.377Z,19.00
2018-09-30T15:19:19.966Z,18.96
2018-09-30T15:21:48.594Z,18.91
2018-09-30T15:24:17.287Z,18.93
2018-09-30T15:26:45.840Z,19.07
2018-09-30T15:29:14.431Z,18.83
2018-09-30T15:31:42.997Z,18.84
2018-09-30T15:34:11.746Z,18.77
2018-09-30T15:36:40.308Z,18.73
2018-09-30T15:39:10.877Z,18.70
2018-09-30T15:41:39.988Z,18.80
2018-09-30T15:44:08.653Z,18.72
2018-09-30T15:46:37.247Z,18.66
2018-09-30T15:49:06.067Z,18.38
2018-09-30T15:51:34.684Z,18.00
2018-09-30T15:54:03.521Z,18.08
2018-09-30T15:56:32.148Z,18.10
2018-09-30T15:59:00.747Z,18.05
2018-09-30T16:01:29.324Z,17.87
2018-09-30T16:03:58.690Z,17.63
2018-09-30T16:06:27.232Z,17.55
2018-09-30T16:08:55.796Z,17.24
2018-09-30T16:11:24.380Z,17.12
2018-09-30T16:13:52.960Z,16.99
2018-09-30T16:16:21.804Z,16.34
2018-09-30T17:38:16.644Z,12.90
2018-09-30T17:40:45.232Z,12.89
2018-09-30T17:43:13.788Z,12.80
2018-09-30T17:45:42.411Z,12.81
2018-09-30T17:48:11.121Z,12.63
2018-09-30T17:50:39.683Z,12.60
2018-09-30T17:53:08.231Z,12.54
2018-09-30T17:55:36.787Z,12.44
2018-09-30T17:58:05.394Z,12.33
2018-09-30T18:00:33.990Z,12.47
2018-09-30T18:03:02.562Z,12.37
2018-09-30T18:05:31.191Z,12.28
2018-09-30T18:07:59.771Z,12.24
2018-09-30T18:10:28.299Z,12.18
2018-09-30T18:12:57.004Z,12.03
2018-09-30T18:15:25.576Z,11.90
2018-09-30T18:17:54.185Z,11.92
2018-09-30T18:20:22.764Z,11.73
2018-09-30T18:22:51.372Z,11.79
2018-09-30T18:25:19.920Z,11.77
2018-09-30T18:27:48.519Z,11.83
2018-09-30T18:30:17.152Z,11.73
2018-09-30T18:32:45.694Z,11.54
2018-09-30T18:35:14.253Z,11.38
2018-09-30T18:37:42.789Z,11.32
2018-09-30T18:40:11.382Z,11.38
2018-09-30T18:42:39.885Z,11.19
2018-09-30T18:45:08.495Z,11.09
2018-09-30T18:47:37.042Z,11.37
2018-09-30T18:50:05.729Z,11.27
2018-09-30T18:52:34.382Z,11.11
2018-09-30T18:55:03.123Z,11.03
2018-09-30T18:57:31.710Z,11.07
2018-09-30T19:00:00.240Z,11.00
2018-09-30T19:02:28.828Z,11.01
2018-09-30T19:04:57.371Z,11.03
2018-09-30T19:07:25.934Z,10.97
2018-09-30T19:09:54.520Z,11.09
2018-09-30T19:12:23.080Z,11.15
2018-09-30T19:14:51.624Z,11.18
2018-09-30T19:17:20.168Z,11.25
2018-09-30T19:19:48.735Z,11.23
2018-09-30T19:22:17.277Z,11.29
2018-09-30T19:24:45.927Z,11.31
2018-09-30T19:27:14.539Z,11.33
2018-09-30T19:29:43.072Z,11.19
2018-09-30T19:32:11.640Z,11.19
2018-09-30T19:34:40.193Z,11.18
2018-09-30T19:37:09.024Z,11.17
2018-09-30T19:39:37.576Z,11.19
2018-09-30T19:42:06.141Z,11.18
2018-09-30T19:44:34.686Z,11.10
2018-09-30T19:47:03.300Z,11.10
2018-09-30T19:49:31.844Z,11.11
2018-09-30T19:52:00.401Z,11.07
2018-09-30T19:54:28.963Z,11.08
2018-09-30T19:56:57.508Z,11.08
2018-09-30T19:59:26.081Z,11.06
2018-09-30T20:01:54.639Z,11.12
2018-09-30T20:04:23.191Z,11.10
2018-09-30T20:06:51.768Z,11.03
2018-09-30T20:09:20.496Z,10.89
2018-09-30T20:11:48.940Z,10.83
2018-09-30T20:14:17.557Z,10.73
2018-09-30T20:16:46.381Z,10.75
2018-09-30T20:19:14.920Z,10.78
2018-09-30T20:21:43.468Z,10.70
2018-09-30T20:24:12.042Z,10.56
2018-09-30T20:26:40.983Z,10.44
2018-09-30T20:29:09.540Z,10.45
2018-09-30T20:31:38.132Z,10.47
2018-09-30T20:34:06.989Z,10.22
2018-09-30T20:36:35.746Z,10.31
2018-09-30T20:39:05.135Z,10.26
2018-09-30T20:41:33.758Z,10.29
2018-09-30T20:44:02.385Z,10.26
2018-09-30T20:46:30.951Z,10.36
2018-09-30T20:48:59.515Z,10.33
2018-09-30T20:51:28.163Z,10.15
2018-09-30T20:53:56.709Z,10.11
2018-09-30T20:56:25.288Z,10.19
2018-09-30T20:58:53.828Z,10.10
2018-09-30T21:01:22.465Z,10.16
2018-09-30T21:03:51.040Z,10.11
2018-09-30T21:06:24.853Z,9.86
2018-09-30T21:08:53.421Z,9.65
2018-09-30T21:11:22.047Z,9.57
2018-09-30T21:13:50.625Z,9.57
2018-09-30T21:16:19.176Z,9.55
2018-09-30T21:18:47.778Z,9.60
2018-09-30T21:21:16.336Z,9.63
2018-09-30T21:23:44.872Z,9.63
2018-09-30T21:26:13.417Z,9.60
2018-09-30T21:28:42.125Z,9.63
2018-09-30T21:31:10.755Z,9.67
2018-09-30T21:33:39.323Z,9.68
2018-09-30T21:36:07.911Z,9.77
2018-09-30T21:38:36.532Z,9.65
2018-09-30T21:41:05.140Z,9.37
2018-09-30T21:43:33.718Z,9.32
2018-09-30T21:46:02.421Z,9.26
2018-09-30T21:48:31.127Z,9.26
2018-09-30T21:50:59.649Z,9.22
2018-09-30T21:53:28.199Z,9.14
2018-09-30T21:55:56.738Z,9.08
2018-09-30T21:58:25.303Z,9.06
2018-09-30T22:01:00.140Z,9.00
2018-09-30T22:03:29.023Z,9.01
2018-09-30T22:05:57.760Z,8.91
2018-09-30T22:08:26.363Z,8.88
2018-09-30T22:10:54.956Z,8.83
2018-09-30T22:13:23.495Z,8.80
2018-09-30T22:15:52.053Z,8.78
2018-09-30T23:06:56.110Z,8.40
2018-09-30T23:09:25.045Z,8.46
2018-09-30T23:11:53.657Z,8.37
2018-09-30T23:14:22.327Z,8.33
2018-09-30T23:16:51.024Z,8.32
2018-09-30T23:19:19.574Z,8.32
2018-09-30T23:21:48.212Z,8.28
2018-09-30T23:24:16.992Z,8.28
2018-09-30T23:26:45.635Z,8.16
2018-09-30T23:29:14.256Z,8.24
2018-09-30T23:31:42.944Z,8.20
2018-09-30T23:34:11.829Z,8.23
2018-09-30T23:36:40.498Z,8.23
2018-09-30T23:39:11.531Z,8.21
2018-09-30T23:41:40.055Z,8.30
2018-09-30T23:44:08.903Z,8.15
2018-09-30T23:46:37.471Z,8.15
2018-09-30T23:49:06.642Z,8.11
2018-09-30T23:51:35.400Z,8.07
2018-09-30T23:54:03.951Z,8.07
2018-09-30T23:56:32.496Z,8.02
2018-09-30T23:59:01.044Z,7.95
